Time;durP1;ratioP1;P1;durP2;ratioP2;P2;SDS_P1;SDS_P2;PMS_P1;PMS_P2;Temp;Humidity;BMP_temperature;BMP_pressure;BME280_temperature;BME280_humidity;BME280_pressure;Samples;Min_cycle;Max_cycle;Signal;HPM_P1;HPM_P2
2021/01/22 00:00:43;;;;;;;4.60;1.45;;;11.30;47.50;;;;;;5010341;28;20413;-72
2021/01/22 00:03:09;;;;;;;4.05;1.50;;;11.30;47.70;;;;;;5011336;28;20774;-74
2021/01/22 00:05:34;;;;;;;4.15;1.30;;;11.30;47.50;;;;;;5010405;28;20480;-74
2021/01/22 00:08:00;;;;;;;4.07;1.30;;;11.20;48.00;;;;;;4999910;28;20407;-73
2021/01/22 00:10:25;;;;;;;2.72;1.30;;;11.20;47.40;;;;;;4991404;28;20402;-75
2021/01/22 00:12:51;;;;;;;3.03;1.10;;;11.20;47.90;;;;;;4990267;28;20452;-75
2021/01/22 00:15:16;;;;;;;5.00;1.38;;;11.30;48.10;;;;;;4991732;28;20429;-74
2021/01/22 00:17:43;;;;;;;4.25;1.30;;;11.20;48.10;;;;;;4993482;28;20387;-73
2021/01/22 00:20:09;;;;;;;3.97;1.00;;;11.20;47.90;;;;;;5010692;28;20879;-74
2021/01/22 00:22:35;;;;;;;2.50;1.00;;;11.30;48.60;;;;;;5010900;28;20755;-75
2021/01/22 00:25:00;;;;;;;4.60;1.20;;;11.20;49.20;;;;;;5011114;28;20437;-73
2021/01/22 00:27:26;;;;;;;3.38;1.00;;;11.20;49.40;;;;;;5010975;28;20406;-73
2021/01/22 00:29:51;;;;;;;3.85;1.20;;;11.10;51.30;;;;;;5009948;28;20478;-74
2021/01/22 00:32:17;;;;;;;3.90;1.30;;;11.10;51.80;;;;;;5009827;28;20384;-74
2021/01/22 00:34:42;;;;;;;1.50;0.90;;;11.00;52.00;;;;;;5011104;28;20500;-72
2021/01/22 00:37:08;;;;;;;2.13;1.20;;;11.10;51.90;;;;;;5011355;28;20381;-75
2021/01/22 00:39:33;;;;;;;1.37;1.10;;;11.10;52.90;;;;;;5011095;28;20442;-74
2021/01/22 00:41:59;;;;;;;4.37;1.23;;;11.00;53.10;;;;;;5011630;28;20475;-76
2021/01/22 00:44:24;;;;;;;2.30;1.20;;;11.00;53.70;;;;;;5011600;28;20473;-75
2021/01/22 00:46:50;;;;;;;2.07;1.10;;;11.10;53.10;;;;;;5011324;28;20393;-75
2021/01/22 00:49:15;;;;;;;3.10;1.00;;;11.00;52.60;;;;;;5010601;28;20411;-74
2021/01/22 00:51:41;;;;;;;2.67;1.37;;;11.00;53.00;;;;;;5010932;28;20484;-75
2021/01/22 00:54:07;;;;;;;4.77;1.50;;;10.90;55.00;;;;;;5014186;28;20806;-76
2021/01/22 00:56:32;;;;;;;5.30;1.40;;;11.00;53.20;;;;;;5015817;28;20559;-75
2021/01/22 00:58:58;;;;;;;4.90;1.37;;;11.00;52.00;;;;;;5014883;28;20392;-75
2021/01/22 01:01:23;;;;;;;4.70;1.20;;;11.00;50.70;;;;;;5014807;28;21008;-77
2021/01/22 01:03:49;;;;;;;5.90;1.58;;;11.00;51.80;;;;;;5014930;28;20403;-76
2021/01/22 01:06:14;;;;;;;5.45;1.60;;;11.00;51.30;;;;;;5014975;28;20376;-76
2021/01/22 01:08:40;;;;;;;7.38;1.50;;;11.00;50.30;;;;;;5014959;28;20392;-76
2021/01/22 01:11:05;;;;;;;5.95;1.33;;;11.10;48.90;;;;;;5018056;28;20389;-75
2021/01/22 01:13:31;;;;;;;6.32;1.40;;;11.10;48.40;;;;;;5017909;28;20431;-75
2021/01/22 01:15:56;;;;;;;5.87;1.60;;;11.20;47.90;;;;;;5015667;28;20392;-78
2021/01/22 01:18:22;;;;;;;5.13;1.20;;;11.20;46.60;;;;;;5015522;28;20384;-77
2021/01/22 01:20:47;;;;;;;3.43;1.10;;;11.20;45.50;;;;;;5015492;28;20405;-76
2021/01/22 01:23:14;;;;;;;2.10;1.00;;;11.30;45.70;;;;;;5016070;28;20863;-75
2021/01/22 01:25:41;;;;;;;4.70;1.30;;;11.30;45.00;;;;;;5015653;28;20388;-76
2021/01/22 01:28:07;;;;;;;3.22;1.10;;;11.30;45.20;;;;;;5015343;28;20391;-75
2021/01/22 01:30:34;;;;;;;4.30;1.17;;;11.30;45.70;;;;;;5014828;28;20933;-75
2021/01/22 01:33:00;;;;;;;3.15;1.20;;;11.30;46.10;;;;;;5015345;28;20389;-74
2021/01/22 01:35:25;;;;;;;3.70;1.20;;;11.30;45.80;;;;;;5014038;28;20904;-74
2021/01/22 01:37:51;;;;;;;2.27;1.00;;;11.30;45.80;;;;;;5014201;28;20397;-75
2021/01/22 01:40:16;;;;;;;1.70;0.80;;;11.30;45.70;;;;;;5013611;28;20408;-73
2021/01/22 01:42:42;;;;;;;3.70;1.10;;;11.30;46.00;;;;;;5013951;28;20385;-75
2021/01/22 01:45:08;;;;;;;3.50;1.30;;;11.30;46.20;;;;;;5013917;28;20384;-74
2021/01/22 01:47:33;;;;;;;1.10;1.00;;;11.30;47.00;;;;;;5013982;28;20388;-75
2021/01/22 01:49:59;;;;;;;3.03;1.30;;;11.30;48.30;;;;;;5011322;28;20462;-74
2021/01/22 01:52:24;;;;;;;2.50;1.13;;;11.20;57.50;;;;;;5015266;28;20757;-76
2021/01/22 01:54:51;;;;;;;1.30;0.90;;;10.50;63.60;;;;;;5016045;28;20439;-76
2021/01/22 01:57:17;;;;;;;1.70;1.10;;;9.80;63.40;;;;;;5016188;28;20397;-78
2021/01/22 01:59:43;;;;;;;1.98;1.00;;;9.30;63.50;;;;;;5015583;28;20483;-76
2021/01/22 02:02:10;;;;;;;1.10;1.00;;;8.80;66.70;;;;;;5015892;28;20423;-77
2021/01/22 02:04:35;;;;;;;1.35;1.10;;;8.50;71.60;;;;;;5014257;28;20942;-75
2021/01/22 02:07:01;;;;;;;1.00;1.00;;;8.30;69.20;;;;;;5015569;28;20802;-76
2021/01/22 02:09:27;;;;;;;1.50;1.40;;;8.20;72.40;;;;;;5014866;28;20781;-74
2021/01/22 02:11:53;;;;;;;1.58;1.48;;;8.10;75.10;;;;;;5013468;28;20878;-74
2021/01/22 02:14:20;;;;;;;1.88;1.33;;;8.10;73.10;;;;;;5013218;28;20398;-74
2021/01/22 02:16:46;;;;;;;1.30;1.20;;;8.00;73.60;;;;;;5013257;28;20434;-76
2021/01/22 02:19:13;;;;;;;1.50;1.40;;;7.90;73.10;;;;;;5012798;28;20401;-76
2021/01/22 02:21:39;;;;;;;2.27;2.07;;;7.80;75.70;;;;;;5013533;28;20536;-76
2021/01/22 02:24:19;;;;;;;1.77;1.67;;;7.60;78.10;;;;;;5013459;28;20401;-74
2021/01/22 02:27:04;;;;;;;1.50;1.40;;;7.50;76.70;;;;;;5013712;28;20381;-75
2021/01/22 02:29:31;;;;;;;2.38;1.70;;;7.20;75.70;;;;;;5013143;28;20381;-74
2021/01/22 02:32:02;;;;;;;1.60;1.48;;;7.10;71.60;;;;;;5013087;28;20750;-72
2021/01/22 02:34:30;;;;;;;2.22;1.73;;;6.90;70.60;;;;;;5013003;28;20435;-74
2021/01/22 02:36:58;;;;;;;1.52;1.42;;;6.60;71.80;;;;;;5013094;28;20381;-74
2021/01/22 02:39:29;;;;;;;1.92;1.83;;;6.40;71.40;;;;;;5013055;28;20389;-74
2021/01/22 02:41:56;;;;;;;2.10;1.90;;;6.30;74.80;;;;;;5011417;28;20409;-76
2021/01/22 02:44:22;;;;;;;3.30;2.00;;;6.20;74.50;;;;;;5013134;28;20496;-73
2021/01/22 02:46:48;;;;;;;2.05;1.95;;;6.10;72.50;;;;;;5013413;28;20393;-73
2021/01/22 02:49:14;;;;;;;2.10;2.00;;;6.00;74.40;;;;;;5012135;28;20389;-74
2021/01/22 02:51:39;;;;;;;3.28;1.83;;;6.00;74.30;;;;;;5011858;28;20763;-73
2021/01/22 02:54:05;;;;;;;3.00;2.10;;;5.90;72.20;;;;;;5013217;28;20385;-75
2021/01/22 02:56:33;;;;;;;1.95;1.85;;;5.90;70.20;;;;;;5012766;28;20385;-73
2021/01/22 02:59:13;;;;;;;2.00;1.90;;;5.90;71.10;;;;;;5012434;28;20742;-73
2021/01/22 03:01:57;;;;;;;2.00;1.67;;;5.80;72.20;;;;;;5011681;28;20413;-73
2021/01/22 03:04:26;;;;;;;2.00;1.90;;;5.80;71.10;;;;;;5012504;28;20389;-74
2021/01/22 03:06:52;;;;;;;2.43;1.70;;;5.90;69.40;;;;;;5012320;28;20396;-74
2021/01/22 03:09:20;;;;;;;2.00;1.80;;;5.80;68.80;;;;;;5012129;28;20377;-74
2021/01/22 03:11:50;;;;;;;1.60;1.50;;;5.70;70.80;;;;;;5012079;28;20392;-73
2021/01/22 03:14:18;;;;;;;1.40;1.30;;;5.70;69.40;;;;;;5012084;28;20487;-74
2021/01/22 03:16:44;;;;;;;1.60;1.50;;;5.80;68.80;;;;;;5012003;28;20751;-74
2021/01/22 03:19:09;;;;;;;1.80;1.40;;;5.80;68.10;;;;;;5012088;28;20381;-73
2021/01/22 03:21:35;;;;;;;2.00;1.30;;;5.80;68.30;;;;;;5011959;28;20409;-73
2021/01/22 03:24:01;;;;;;;1.80;1.70;;;5.70;68.40;;;;;;5010797;28;20392;-73
2021/01/22 03:26:26;;;;;;;1.80;1.70;;;5.70;67.20;;;;;;5012084;28;20448;-72
2021/01/22 03:28:52;;;;;;;1.70;1.60;;;5.60;68.60;;;;;;5011692;28;20496;-72
2021/01/22 03:31:17;;;;;;;2.40;2.20;;;5.60;68.80;;;;;;5010649;28;20392;-73
2021/01/22 03:33:45;;;;;;;2.13;2.03;;;5.50;69.90;;;;;;5011593;28;20419;-74
2021/01/22 03:36:10;;;;;;;2.40;2.20;;;5.50;69.80;;;;;;5011904;28;20754;-73
2021/01/22 03:38:36;;;;;;;2.20;2.10;;;5.40;70.80;;;;;;5009007;28;20399;-74
2021/01/22 03:41:02;;;;;;;2.60;2.40;;;5.50;71.20;;;;;;4992122;28;20776;-73
2021/01/22 03:43:28;;;;;;;2.92;2.80;;;5.50;72.30;;;;;;4992266;28;20383;-73
2021/01/22 03:45:53;;;;;;;3.40;3.20;;;5.40;73.90;;;;;;5010735;28;20749;-74
2021/01/22 03:48:19;;;;;;;3.75;3.55;;;5.40;70.70;;;;;;5011935;28;20454;-75
2021/01/22 03:50:45;;;;;;;5.20;4.80;;;5.50;70.10;;;;;;5015139;28;20397;-73
2021/01/22 03:53:10;;;;;;;6.32;5.10;;;5.50;67.70;;;;;;5016426;28;20403;-77
2021/01/22 03:55:36;;;;;;;5.60;5.10;;;5.60;66.80;;;;;;5015016;28;20388;-74
2021/01/22 03:58:02;;;;;;;5.40;5.00;;;5.50;68.50;;;;;;5018745;28;20397;-75
2021/01/22 04:00:28;;;;;;;6.40;5.90;;;5.50;69.60;;;;;;5021505;28;20408;-75
2021/01/22 04:02:54;;;;;;;6.68;6.13;;;5.50;70.50;;;;;;5011601;28;20391;-74
2021/01/22 04:05:19;;;;;;;9.80;7.00;;;5.50;71.10;;;;;;5011696;28;20515;-75
2021/01/22 04:07:45;;;;;;;7.93;7.20;;;5.50;72.40;;;;;;5011583;28;20438;-75
2021/01/22 04:10:11;;;;;;;7.45;6.75;;;5.50;71.90;;;;;;5011409;28;20396;-75
2021/01/22 04:12:36;;;;;;;6.93;6.32;;;5.50;71.90;;;;;;5009860;28;20393;-74
2021/01/22 04:15:06;;;;;;;7.30;6.70;;;5.50;72.10;;;;;;5010481;28;20432;-74
2021/01/22 04:17:32;;;;;;;7.10;6.40;;;5.60;72.50;;;;;;5010947;28;20389;-74
2021/01/22 04:19:58;;;;;;;7.50;6.80;;;5.70;70.70;;;;;;5010611;28;20409;-74
2021/01/22 04:22:24;;;;;;;8.18;7.30;;;5.70;70.80;;;;;;5010919;28;20380;-73
2021/01/22 04:24:49;;;;;;;10.32;7.78;;;5.60;70.70;;;;;;5010789;28;20389;-74
2021/01/22 04:27:15;;;;;;;8.15;7.35;;;5.70;69.80;;;;;;5010771;28;20518;-72
2021/01/22 04:29:40;;;;;;;9.45;8.50;;;5.70;67.40;;;;;;5009958;28;20451;-73
2021/01/22 04:32:08;;;;;;;9.38;8.32;;;5.60;70.80;;;;;;5009297;28;20403;-72
2021/01/22 04:34:34;;;;;;;11.05;8.85;;;5.60;70.70;;;;;;5010805;28;20405;-72
2021/01/22 04:37:00;;;;;;;10.15;8.55;;;5.70;68.70;;;;;;5010514;28;20916;-73
2021/01/22 04:39:26;;;;;;;9.67;8.67;;;5.70;68.10;;;;;;5000839;28;20429;-73
2021/01/22 04:41:52;;;;;;;9.40;8.40;;;5.70;68.50;;;;;;4990873;28;20390;-72
2021/01/22 04:44:18;;;;;;;10.75;9.40;;;5.70;68.30;;;;;;5009822;28;20388;-74
2021/01/22 04:46:44;;;;;;;13.20;9.90;;;5.60;69.50;;;;;;5010631;28;20381;-74
2021/01/22 04:49:10;;;;;;;12.43;9.23;;;5.60;71.10;;;;;;5010378;28;20450;-73
2021/01/22 04:51:37;;;;;;;10.80;8.20;;;5.60;71.60;;;;;;5010780;28;20479;-74
2021/01/22 04:54:06;;;;;;;8.95;8.00;;;5.70;69.10;;;;;;5010764;28;20396;-74
2021/01/22 04:56:37;;;;;;;9.80;8.80;;;5.70;70.00;;;;;;5010652;28;20388;-74
2021/01/22 04:59:14;;;;;;;9.98;8.55;;;5.70;71.30;;;;;;5010227;28;20401;-74
2021/01/22 05:01:41;;;;;;;8.60;7.70;;;5.70;70.20;;;;;;5010549;28;20403;-74
2021/01/22 05:04:06;;;;;;;8.60;7.10;;;5.70;69.70;;;;;;5011060;28;20475;-74
2021/01/22 05:06:32;;;;;;;8.82;7.78;;;5.60;69.50;;;;;;5011088;28;20914;-75
2021/01/22 05:08:58;;;;;;;11.10;7.70;;;5.60;71.20;;;;;;5012537;28;20659;-75
2021/01/22 05:11:23;;;;;;;7.50;6.80;;;5.60;70.90;;;;;;5012913;28;20400;-76
2021/01/22 05:13:49;;;;;;;7.83;7.00;;;5.60;70.70;;;;;;5012804;28;20451;-75
2021/01/22 05:16:15;;;;;;;7.53;6.72;;;5.70;69.90;;;;;;5014097;28;20385;-74
2021/01/22 05:18:42;;;;;;;8.20;6.50;;;5.70;70.00;;;;;;5013612;28;20389;-76
2021/01/22 05:21:12;;;;;;;7.50;6.28;;;5.60;70.80;;;;;;5013859;28;20432;-76
2021/01/22 05:23:39;;;;;;;9.77;7.10;;;5.70;69.80;;;;;;5015190;28;20389;-76
2021/01/22 05:26:13;;;;;;;9.23;6.10;;;5.70;69.80;;;;;;5015740;28;20401;-73
2021/01/22 05:28:48;;;;;;;7.40;6.60;;;5.70;70.20;;;;;;5014421;28;20454;-74
2021/01/22 05:31:16;;;;;;;6.97;6.30;;;5.70;70.20;;;;;;5015028;28;20403;-77
2021/01/22 05:33:58;;;;;;;7.30;6.50;;;5.70;71.00;;;;;;5016087;28;20432;-74
2021/01/22 05:36:29;;;;;;;7.63;6.40;;;5.80;71.40;;;;;;5015191;28;20431;-75
2021/01/22 05:38:57;;;;;;;10.13;7.22;;;5.80;69.20;;;;;;5011170;28;20420;-74
2021/01/22 05:41:23;;;;;;;9.32;6.75;;;5.80;69.70;;;;;;5013869;28;20423;-73
2021/01/22 05:43:52;;;;;;;10.23;7.10;;;5.70;69.60;;;;;;5013541;28;20403;-73
2021/01/22 05:46:27;;;;;;;10.18;7.10;;;5.70;70.70;;;;;;5013553;28;20530;-73
2021/01/22 05:49:12;;;;;;;9.55;7.10;;;5.70;70.00;;;;;;5013528;28;20389;-74
2021/01/22 05:51:38;;;;;;;8.32;7.38;;;5.70;69.30;;;;;;5015237;28;20446;-76
2021/01/22 05:54:04;;;;;;;12.83;7.40;;;5.80;68.80;;;;;;5017783;28;20483;-75
2021/01/22 05:56:29;;;;;;;12.63;7.70;;;5.80;69.10;;;;;;5013574;28;20502;-74
2021/01/22 05:58:55;;;;;;;10.65;7.50;;;5.80;68.50;;;;;;5015058;28;20748;-75
2021/01/22 06:01:25;;;;;;;9.70;7.78;;;5.80;69.50;;;;;;5013773;28;20409;-74
2021/01/22 06:03:52;;;;;;;9.50;7.25;;;5.70;70.00;;;;;;5013332;28;20471;-72
2021/01/22 06:06:20;;;;;;;10.60;7.80;;;5.70;70.60;;;;;;5013097;28;20458;-74
2021/01/22 06:08:57;;;;;;;11.75;7.53;;;5.70;70.80;;;;;;5012851;28;20403;-72
2021/01/22 06:11:27;;;;;;;12.05;7.63;;;5.70;70.20;;;;;;5013058;28;20517;-74
2021/01/22 06:13:57;;;;;;;12.57;8.10;;;5.80;68.20;;;;;;4993418;28;20395;-76
2021/01/22 06:16:25;;;;;;;11.25;7.43;;;5.70;69.10;;;;;;4993606;28;20481;-73
2021/01/22 06:19:06;;;;;;;11.07;8.57;;;5.70;69.10;;;;;;4993116;28;20390;-73
2021/01/22 06:21:39;;;;;;;10.40;7.65;;;5.80;69.20;;;;;;4993341;28;20459;-74
2021/01/22 06:24:07;;;;;;;11.95;7.90;;;5.80;69.30;;;;;;4993402;28;20390;-73
2021/01/22 06:26:36;;;;;;;11.77;7.50;;;5.90;67.60;;;;;;4995133;28;20478;-73
2021/01/22 06:29:09;;;;;;;11.77;7.90;;;6.00;67.00;;;;;;5012422;28;20415;-73
2021/01/22 06:31:37;;;;;;;11.05;8.50;;;6.00;68.20;;;;;;5012756;28;20461;-72
2021/01/22 06:34:02;;;;;;;12.55;8.65;;;6.00;68.80;;;;;;5012812;28;20400;-72
2021/01/22 06:36:28;;;;;;;10.70;7.33;;;6.00;67.10;;;;;;5011290;28;20881;-73
2021/01/22 06:38:55;;;;;;;12.90;9.10;;;6.00;66.80;;;;;;5012267;28;20843;-73
2021/01/22 06:41:25;;;;;;;12.00;8.55;;;6.00;67.10;;;;;;5012256;28;20409;-73
2021/01/22 06:43:53;;;;;;;10.98;8.20;;;6.10;66.40;;;;;;5012394;28;20442;-74
2021/01/22 06:46:20;;;;;;;14.47;8.40;;;6.10;65.50;;;;;;5012074;28;20703;-73
2021/01/22 06:48:53;;;;;;;12.10;8.10;;;6.10;65.50;;;;;;5012163;28;20831;-72
2021/01/22 06:51:20;;;;;;;12.70;7.90;;;6.10;65.20;;;;;;5011857;28;20443;-73
2021/01/22 06:54:21;;;;;;;11.38;7.75;;;6.30;64.40;;;;;;5011970;28;20389;-73
2021/01/22 06:56:55;;;;;;;12.88;8.27;;;6.30;63.90;;;;;;5010565;28;20924;-74
2021/01/22 06:59:22;;;;;;;12.32;7.55;;;6.30;64.90;;;;;;5010784;28;20947;-73
2021/01/22 07:01:50;;;;;;;11.90;7.60;;;6.40;63.30;;;;;;5011975;28;20432;-73
2021/01/22 07:04:31;;;;;;;11.77;7.63;;;6.30;62.30;;;;;;5010876;28;20392;-73
2021/01/22 07:07:05;;;;;;;12.93;8.32;;;6.30;60.90;;;;;;5011787;28;20388;-75
2021/01/22 07:09:46;;;;;;;11.88;7.20;;;6.30;62.70;;;;;;5011512;28;20384;-73
2021/01/22 07:12:16;;;;;;;11.70;7.93;;;6.30;62.70;;;;;;5010645;28;20405;-74
2021/01/22 07:14:47;;;;;;;13.05;8.18;;;6.10;63.80;;;;;;5011711;28;20432;-72
2021/01/22 07:17:13;;;;;;;14.25;8.50;;;6.10;64.00;;;;;;5012028;28;20862;-73
2021/01/22 07:19:40;;;;;;;11.10;7.60;;;6.20;63.60;;;;;;5018041;28;20387;-74
2021/01/22 07:22:06;;;;;;;11.45;8.05;;;6.20;63.40;;;;;;5017692;28;20392;-73
2021/01/22 07:24:34;;;;;;;10.02;6.80;;;6.10;63.00;;;;;;5018830;28;20393;-73
2021/01/22 07:27:04;;;;;;;10.27;7.35;;;6.10;62.90;;;;;;5017405;28;20393;-74
2021/01/22 07:29:30;;;;;;;11.27;7.90;;;6.10;62.80;;;;;;5017203;28;20393;-72
2021/01/22 07:32:01;;;;;;;12.87;7.87;;;6.10;63.80;;;;;;5017115;28;20389;-73
2021/01/22 07:34:48;;;;;;;12.07;7.03;;;6.10;64.00;;;;;;5013286;28;20796;-72
2021/01/22 07:37:25;;;;;;;9.30;7.00;;;6.20;62.30;;;;;;5012843;28;20738;-75
2021/01/22 07:39:54;;;;;;;15.07;7.40;;;6.20;62.70;;;;;;5000431;28;20410;-72
2021/01/22 07:42:26;;;;;;;12.38;7.50;;;6.20;62.30;;;;;;4991536;28;20386;-72
2021/01/22 07:44:53;;;;;;;10.45;7.72;;;6.20;63.60;;;;;;4991893;28;20950;-72
2021/01/22 07:47:27;;;;;;;11.07;7.40;;;6.30;62.60;;;;;;5010863;28;20436;-72
2021/01/22 07:50:07;;;;;;;13.38;7.45;;;6.20;63.40;;;;;;5010714;28;20392;-72
2021/01/22 07:52:45;;;;;;;11.75;7.50;;;6.30;62.20;;;;;;5011289;28;20392;-73
2021/01/22 07:55:16;;;;;;;11.98;7.47;;;6.30;63.70;;;;;;5011122;28;20436;-71
2021/01/22 07:57:43;;;;;;;11.13;7.30;;;6.30;63.20;;;;;;5010933;28;20901;-73
2021/01/22 08:00:11;;;;;;;11.35;7.55;;;6.40;63.10;;;;;;5009307;28;20462;-72
2021/01/22 08:02:36;;;;;;;11.65;7.65;;;6.40;63.00;;;;;;5009870;28;20428;-72
2021/01/22 08:05:07;;;;;;;13.03;7.80;;;6.40;62.70;;;;;;5009856;28;20908;-72
2021/01/22 08:07:37;;;;;;;12.95;7.85;;;6.40;63.60;;;;;;5008496;28;20829;-74
2021/01/22 08:10:10;;;;;;;14.88;8.35;;;6.30;64.90;;;;;;5015504;28;20639;-75
2021/01/22 08:12:36;;;;;;;11.63;8.50;;;6.40;63.40;;;;;;5014433;28;20408;-73
2021/01/22 08:15:18;;;;;;;13.20;7.22;;;6.60;62.30;;;;;;5015388;28;20412;-72
2021/01/22 08:17:48;;;;;;;13.38;7.45;;;6.60;60.40;;;;;;5014214;28;20457;-73
2021/01/22 08:20:18;;;;;;;13.80;7.28;;;6.60;60.80;;;;;;5016405;28;20423;-74
2021/01/22 08:22:54;;;;;;;14.27;6.88;;;6.60;61.10;;;;;;5016951;28;20484;-72
2021/01/22 08:25:28;;;;;;;13.02;7.80;;;6.70;60.60;;;;;;5010301;28;20404;-72
2021/01/22 08:27:55;;;;;;;11.98;7.40;;;6.80;59.70;;;;;;5014873;28;20451;-72
2021/01/22 08:30:23;;;;;;;10.90;6.80;;;6.80;58.60;;;;;;5016954;28;20477;-73
2021/01/22 08:32:48;;;;;;;11.90;7.80;;;6.90;57.60;;;;;;5014294;28;20466;-72
2021/01/22 08:35:14;;;;;;;12.55;7.38;;;7.00;57.50;;;;;;5015807;28;20389;-73
2021/01/22 08:37:40;;;;;;;12.07;7.50;;;7.10;56.90;;;;;;5015033;28;20440;-73
2021/01/22 08:40:06;;;;;;;14.37;7.23;;;7.10;56.30;;;;;;5015029;28;20478;-73
2021/01/22 08:42:32;;;;;;;13.60;7.55;;;7.20;54.50;;;;;;5016200;28;20893;-73
2021/01/22 08:45:06;;;;;;;12.00;7.78;;;7.20;54.90;;;;;;5009936;28;20688;-71
2021/01/22 08:47:39;;;;;;;13.43;7.28;;;7.30;55.50;;;;;;5010309;28;20392;-73
2021/01/22 08:50:05;;;;;;;13.32;8.20;;;7.30;55.90;;;;;;5009126;28;20443;-73
2021/01/22 08:52:31;;;;;;;14.90;7.43;;;7.30;54.30;;;;;;5009177;28;20404;-74
2021/01/22 08:54:58;;;;;;;12.65;7.60;;;7.30;54.20;;;;;;5009409;28;20982;-73
2021/01/22 08:57:28;;;;;;;10.10;7.13;;;7.40;53.60;;;;;;5010405;28;20393;-74
2021/01/22 08:59:56;;;;;;;12.02;7.28;;;7.50;53.10;;;;;;5008976;28;20449;-73
2021/01/22 09:02:34;;;;;;;14.75;7.20;;;7.50;53.10;;;;;;5010333;28;20941;-74
2021/01/22 09:05:08;;;;;;;10.70;7.53;;;7.40;52.00;;;;;;5008954;28;20412;-74
2021/01/22 09:07:34;;;;;;;13.50;6.80;;;7.50;52.60;;;;;;5010493;28;20379;-72
2021/01/22 09:09:59;;;;;;;15.50;7.47;;;7.50;52.10;;;;;;5007822;28;20408;-73
2021/01/22 09:12:27;;;;;;;11.30;7.32;;;7.60;52.60;;;;;;5009520;28;20403;-72
2021/01/22 09:15:04;;;;;;;12.77;7.25;;;7.60;52.00;;;;;;5012070;28;20392;-71
2021/01/22 09:17:44;;;;;;;10.57;6.60;;;7.70;51.10;;;;;;5013710;28;20905;-72
2021/01/22 09:20:23;;;;;;;12.38;6.82;;;7.70;50.90;;;;;;5012369;28;20427;-73
2021/01/22 09:22:51;;;;;;;13.30;7.53;;;7.80;50.20;;;;;;5013494;28;20671;-73
2021/01/22 09:25:19;;;;;;;11.73;6.38;;;7.80;50.70;;;;;;5011768;28;20433;-74
2021/01/22 09:27:46;;;;;;;11.85;6.50;;;8.00;49.70;;;;;;5012959;28;20464;-74
2021/01/22 09:30:18;;;;;;;13.00;6.68;;;7.90;49.40;;;;;;5012195;28;20443;-74
2021/01/22 09:32:48;;;;;;;11.40;6.40;;;8.00;48.70;;;;;;5012769;28;20392;-73
2021/01/22 09:35:15;;;;;;;12.25;6.40;;;8.00;48.60;;;;;;5012426;28;20419;-73
2021/01/22 09:37:41;;;;;;;207.03;137.23;;;8.00;49.20;;;;;;5012443;28;20460;-73
2021/01/22 09:40:08;;;;;;;75.73;43.57;;;8.00;49.50;;;;;;5010352;28;20412;-73
2021/01/22 09:42:35;;;;;;;10.00;6.45;;;8.10;52.20;;;;;;5013160;28;20885;-73
2021/01/22 09:45:00;;;;;;;12.20;7.85;;;8.20;47.00;;;;;;5012423;28;20427;-72
2021/01/22 09:47:27;;;;;;;40.23;24.67;;;8.20;47.50;;;;;;5012014;28;20388;-73
2021/01/22 09:49:53;;;;;;;59.65;32.88;;;8.40;49.30;;;;;;5011903;28;20412;-74
2021/01/22 09:52:18;;;;;;;13.23;8.40;;;8.50;46.80;;;;;;5011443;28;20393;-73
2021/01/22 09:54:48;;;;;;;11.03;7.30;;;8.40;46.80;;;;;;5012883;28;20399;-74
2021/01/22 09:57:13;;;;;;;21.65;11.00;;;8.50;46.50;;;;;;5013274;28;20411;-73
2021/01/22 09:59:39;;;;;;;23.25;14.18;;;8.70;46.90;;;;;;5012085;28;20389;-72
2021/01/22 10:02:05;;;;;;;16.90;7.60;;;8.80;44.10;;;;;;5012578;28;20397;-75
2021/01/22 10:04:30;;;;;;;17.97;9.40;;;8.70;43.90;;;;;;5014072;28;20419;-72
2021/01/22 10:06:56;;;;;;;11.73;7.43;;;8.60;45.40;;;;;;5017831;28;20392;-73
2021/01/22 10:09:21;;;;;;;22.60;10.30;;;8.60;44.40;;;;;;5018553;28;20389;-72
2021/01/22 10:11:47;;;;;;;11.47;6.30;;;8.70;44.10;;;;;;5015807;28;20474;-73
2021/01/22 10:14:13;;;;;;;13.20;7.70;;;8.70;42.70;;;;;;5018671;28;20415;-73
2021/01/22 10:16:39;;;;;;;21.33;11.23;;;8.70;43.70;;;;;;5017094;28;20479;-73
2021/01/22 10:19:05;;;;;;;10.00;6.90;;;8.80;43.90;;;;;;5014119;28;20404;-72
2021/01/22 10:21:30;;;;;;;14.43;6.30;;;8.80;42.00;;;;;;5013152;28;20464;-73
2021/01/22 10:23:56;;;;;;;10.90;6.30;;;8.60;43.00;;;;;;5014325;28;20385;-73
2021/01/22 10:26:23;;;;;;;10.05;6.00;;;8.60;43.30;;;;;;5010825;28;20450;-73
2021/01/22 10:28:50;;;;;;;12.38;6.97;;;8.40;44.00;;;;;;5006805;28;20422;-74
2021/01/22 10:31:16;;;;;;;11.52;6.78;;;8.40;44.10;;;;;;5008951;28;20405;-73
2021/01/22 10:33:42;;;;;;;12.48;6.38;;;8.40;45.30;;;;;;5019761;28;20399;-73
2021/01/22 10:36:08;;;;;;;13.40;7.10;;;8.50;44.90;;;;;;5018804;28;20393;-72
2021/01/22 10:38:35;;;;;;;13.23;7.18;;;8.70;44.90;;;;;;5015927;28;20409;-74
2021/01/22 10:41:01;;;;;;;16.67;6.70;;;8.70;43.10;;;;;;5016075;28;20413;-74
2021/01/22 10:43:27;;;;;;;16.13;7.22;;;8.70;43.10;;;;;;5015863;28;20408;-72
2021/01/22 10:45:53;;;;;;;15.75;7.22;;;8.70;43.30;;;;;;5014586;28;20393;-71
2021/01/22 10:48:18;;;;;;;16.38;7.05;;;8.70;44.20;;;;;;5012471;28;20393;-71
2021/01/22 10:50:45;;;;;;;11.30;7.20;;;8.70;42.90;;;;;;5012129;28;20396;-71
2021/01/22 10:53:11;;;;;;;12.70;7.47;;;8.80;44.50;;;;;;5010974;28;20405;-74
2021/01/22 10:55:36;;;;;;;10.50;6.95;;;8.90;42.00;;;;;;5013877;28;20399;-72
2021/01/22 10:58:02;;;;;;;17.30;7.22;;;8.80;41.80;;;;;;5014573;28;20484;-76
2021/01/22 11:00:28;;;;;;;9.63;6.32;;;8.80;42.30;;;;;;5013124;28;20946;-71
2021/01/22 11:02:53;;;;;;;11.38;7.20;;;8.90;41.90;;;;;;5011788;28;20404;-72
2021/01/22 11:05:19;;;;;;;11.77;7.88;;;8.80;41.10;;;;;;5011675;28;20451;-73
2021/01/22 11:07:45;;;;;;;12.52;8.00;;;8.70;41.80;;;;;;5011031;28;20421;-73
2021/01/22 11:10:11;;;;;;;13.50;7.38;;;8.70;42.30;;;;;;5011783;28;20393;-72
2021/01/22 11:12:36;;;;;;;18.40;8.27;;;8.80;42.20;;;;;;5011319;28;20446;-70
2021/01/22 11:15:03;;;;;;;15.23;8.50;;;8.70;42.00;;;;;;5011205;28;20431;-72
2021/01/22 11:17:29;;;;;;;14.38;7.82;;;8.70;42.00;;;;;;5010479;28;20393;-72
2021/01/22 11:19:55;;;;;;;10.90;7.50;;;8.70;42.50;;;;;;5010748;28;20404;-73
2021/01/22 11:22:20;;;;;;;12.33;7.10;;;8.60;42.00;;;;;;5011487;28;20381;-73
2021/01/22 11:24:46;;;;;;;13.10;7.40;;;8.50;43.10;;;;;;5010555;28;20427;-72
2021/01/22 11:27:11;;;;;;;13.53;8.23;;;8.50;42.20;;;;;;5010430;28;20400;-72
2021/01/22 11:29:38;;;;;;;15.20;8.10;;;8.40;42.90;;;;;;5009810;28;20887;-72
2021/01/22 11:32:04;;;;;;;14.95;7.40;;;8.50;42.70;;;;;;5010111;28;20411;-71
2021/01/22 11:34:32;;;;;;;14.93;8.02;;;8.40;43.00;;;;;;5011329;28;20400;-72
2021/01/22 11:36:57;;;;;;;13.13;7.50;;;8.40;44.00;;;;;;5010473;28;20616;-71
2021/01/22 11:39:23;;;;;;;8.55;6.60;;;8.40;42.40;;;;;;5010940;28;20462;-71
2021/01/22 11:41:48;;;;;;;16.63;7.90;;;8.40;41.70;;;;;;5010614;28;20515;-70
2021/01/22 11:44:14;;;;;;;16.57;8.20;;;8.40;43.40;;;;;;5009920;28;20388;-71
2021/01/22 11:46:40;;;;;;;14.52;7.90;;;8.40;43.50;;;;;;5010381;28;20436;-72
2021/01/22 11:49:07;;;;;;;11.50;7.60;;;8.40;44.20;;;;;;5010996;28;20407;-70
2021/01/22 11:51:32;;;;;;;15.65;8.32;;;8.50;43.40;;;;;;5008826;28;20413;-70
2021/01/22 11:53:58;;;;;;;15.17;7.90;;;8.60;42.70;;;;;;5011296;28;20413;-70
2021/01/22 11:56:26;;;;;;;13.50;7.70;;;8.70;42.70;;;;;;5011289;28;20385;-72
2021/01/22 11:58:51;;;;;;;13.10;7.70;;;8.70;42.20;;;;;;5010445;28;20818;-71
2021/01/22 12:01:17;;;;;;;16.30;7.80;;;8.80;42.00;;;;;;5009929;28;21014;-71
2021/01/22 12:03:42;;;;;;;16.23;7.70;;;8.80;41.90;;;;;;5009577;28;20758;-72
2021/01/22 12:06:08;;;;;;;18.83;7.65;;;9.00;40.90;;;;;;5011126;28;20743;-71
2021/01/22 12:08:33;;;;;;;12.15;6.57;;;9.10;40.20;;;;;;5011288;28;20826;-71
2021/01/22 12:10:59;;;;;;;11.77;5.85;;;9.40;37.40;;;;;;5011203;28;20487;-71
2021/01/22 12:13:25;;;;;;;9.70;6.15;;;9.60;35.90;;;;;;5005983;28;20431;-73
2021/01/22 12:15:50;;;;;;;6.82;5.15;;;9.60;35.20;;;;;;5009338;28;20587;-71
2021/01/22 12:18:16;;;;;;;11.40;5.70;;;9.70;32.60;;;;;;5009890;28;20888;-71
2021/01/22 12:20:43;;;;;;;11.63;5.50;;;9.60;34.50;;;;;;5010183;28;20400;-73
2021/01/22 12:23:09;;;;;;;7.63;4.30;;;9.70;33.70;;;;;;5010492;28;20400;-73
2021/01/22 12:25:35;;;;;;;5.97;5.25;;;9.70;32.10;;;;;;5010451;28;20685;-71
2021/01/22 12:28:00;;;;;;;9.20;4.72;;;9.70;32.80;;;;;;5010530;28;20442;-71
2021/01/22 12:30:26;;;;;;;7.68;4.53;;;9.60;32.40;;;;;;5008940;28;20916;-72
2021/01/22 12:32:52;;;;;;;7.25;4.60;;;9.60;32.40;;;;;;5009925;28;20496;-72
2021/01/22 12:35:18;;;;;;;7.40;4.33;;;9.70;31.30;;;;;;5009448;28;20941;-72
2021/01/22 12:37:44;;;;;;;6.30;4.60;;;9.70;31.70;;;;;;5009452;28;20416;-70
2021/01/22 12:40:11;;;;;;;6.47;4.10;;;9.70;31.80;;;;;;5009414;28;20413;-71
2021/01/22 12:42:37;;;;;;;4.68;3.10;;;9.80;30.20;;;;;;5008967;28;20487;-72
2021/01/22 12:45:03;;;;;;;7.72;3.22;;;9.70;29.90;;;;;;5009452;28;20409;-72
2021/01/22 12:47:29;;;;;;;3.67;3.03;;;9.60;30.70;;;;;;5011228;28;20389;-71
2021/01/22 12:49:54;;;;;;;5.68;3.00;;;9.70;29.40;;;;;;5014703;28;20416;-73
2021/01/22 12:52:20;;;;;;;4.53;2.90;;;9.70;28.90;;;;;;5018416;28;20434;-72